Time,TemperatureF,DewpointF,PressureIn,WindDirection,WindDirectionDegrees,WindSpeedMPH,WindSpeedGustMPH,Humidity,HourlyPrecipIn,Conditions,Clouds,dailyrainin,SoftwareType,DateUTC
2013-07-04 00:03:00,69.3,68.7,30.13,South,180,2.7,-999.0,98,-99.99,,,0.00,Acu-Link.com,2013-07-04 04:03:00,
2013-07-04 00:18:00,69.1,68.5,30.12,WSW,247,1.7,-999.0,98,-99.99,,,0.00,Acu-Link.com,2013-07-04 04:18:00,
2013-07-04 00:33:00,69.1,68.5,30.12,South,180,0.0,-999.0,98,-99.99,,,0.00,Acu-Link.com,2013-07-04 04:33:00,
2013-07-04 00:49:00,69.1,68.5,30.13,West,270,2.2,-999.0,98,-99.99,,,0.00,Acu-Link.com,2013-07-04 04:49:00,
2013-07-04 01:04:00,69.3,68.7,30.13,SW,225,0.0,-999.0,98,-99.99,,,0.00,Acu-Link.com,2013-07-04 05:04:00,
2013-07-04 01:19:00,69.4,68.8,30.13,North,0,2.2,-999.0,98,-99.99,,,0.00,Acu-Link.com,2013-07-04 05:19:00,
2013-07-04 01:34:00,69.4,68.8,30.14,SW,225,1.7,-999.0,98,-99.99,,,0.00,Acu-Link.com,2013-07-04 05:34:00,
2013-07-04 01:50:00,69.4,68.8,30.13,SE,135,0.0,-999.0,98,-99.99,,,0.00,Acu-Link.com,2013-07-04 05:50:00,
2013-07-04 02:05:00,69.4,68.8,30.13,South,180,0.0,-999.0,98,-99.99,,,0.00,Acu-Link.com,2013-07-04 06:05:00,
2013-07-04 02:20:00,69.4,68.8,30.13,SW,225,2.7,-999.0,98,-99.99,,,0.00,Acu-Link.com,2013-07-04 06:20:00,
2013-07-04 02:36:00,69.3,68.7,30.12,NE,45,0.0,-999.0,98,-99.99,,,0.00,Acu-Link.com,2013-07-04 06:36:00,
2013-07-04 02:51:00,69.1,68.5,30.12,SSW,202,0.0,-999.0,98,-99.99,,,0.00,Acu-Link.com,2013-07-04 06:51:00,
2013-07-04 03:06:00,69.1,68.5,30.12,SW,225,3.2,-999.0,98,-99.99,,,0.00,Acu-Link.com,2013-07-04 07:06:00,
2013-07-04 03:21:00,69.1,68.5,30.13,South,180,2.7,-999.0,98,-99.99,,,0.00,Acu-Link.com,2013-07-04 07:21:00,
2013-07-04 03:37:00,69.1,68.5,30.12,SW,225,2.7,-999.0,98,-99.99,,,0.00,Acu-Link.com,2013-07-04 07:37:00,
2013-07-04 03:52:00,69.1,68.5,30.13,SW,225,2.7,-999.0,98,-99.99,,,0.00,Acu-Link.com,2013-07-04 07:52:00,
2013-07-04 04:08:00,69.1,68.5,30.12,SSE,157,3.7,-999.0,98,-99.99,,,0.00,Acu-Link.com,2013-07-04 08:08:00,
2013-07-04 04:23:00,69.3,68.7,30.12,SSW,202,0.0,-999.0,98,-99.99,,,0.00,Acu-Link.com,2013-07-04 08:23:00,
2013-07-04 04:39:00,69.3,68.7,30.13,SW,225,3.2,-999.0,98,-99.99,,,0.00,Acu-Link.com,2013-07-04 08:39:00,
2013-07-04 04:54:00,69.3,68.7,30.13,SSW,202,0.0,-999.0,98,-99.99,,,0.00,Acu-Link.com,2013-07-04 08:54:00,
2013-07-04 05:09:00,69.3,68.7,30.14,SSW,202,0.0,-999.0,98,-99.99,,,0.01,Acu-Link.com,2013-07-04 09:09:00,
2013-07-04 05:24:00,69.3,68.7,30.14,SW,225,3.2,-999.0,98,-99.99,,,0.01,Acu-Link.com,2013-07-04 09:24:00,
2013-07-04 05:39:00,69.3,68.7,30.15,WSW,247,2.2,-999.0,98,-99.99,,,0.02,Acu-Link.com,2013-07-04 09:39:00,
2013-07-04 05:54:00,68.9,68.3,30.16,SSE,157,0.0,-999.0,98,-99.99,,,0.20,Acu-Link.com,2013-07-04 09:54:00,
2013-07-04 06:10:00,68.9,68.3,30.16,South,180,0.0,-999.0,98,-99.99,,,0.83,Acu-Link.com,2013-07-04 10:10:00,
2013-07-04 06:25:00,68.9,68.3,30.17,SSW,202,0.0,-999.0,98,-99.99,,,0.90,Acu-Link.com,2013-07-04 10:25:00,
2013-07-04 06:40:00,68.9,68.3,30.17,SW,225,2.2,-999.0,98,-99.99,,,1.06,Acu-Link.com,2013-07-04 10:40:00,
2013-07-04 06:55:00,68.7,68.1,30.17,South,180,0.0,-999.0,98,-99.99,,,1.28,Acu-Link.com,2013-07-04 10:55:00,
2013-07-04 07:10:00,68.9,68.3,30.18,South,180,0.0,-999.0,98,-99.99,,,1.52,Acu-Link.com,2013-07-04 11:10:00,
2013-07-04 07:26:00,68.9,68.3,30.18,South,180,0.0,-999.0,98,-99.99,,,1.52,Acu-Link.com,2013-07-04 11:26:00,
2013-07-04 07:41:00,69.1,68.5,30.18,South,180,0.0,-999.0,98,-99.99,,,1.52,Acu-Link.com,2013-07-04 11:41:00,
2013-07-04 07:57:00,69.6,69.0,30.18,SW,225,0.0,-999.0,98,-99.99,,,1.52,Acu-Link.com,2013-07-04 11:57:00,
2013-07-04 08:12:00,70.2,69.6,30.18,SSW,202,0.0,-999.0,98,-99.99,,,1.52,Acu-Link.com,2013-07-04 12:12:00,
2013-07-04 08:27:00,70.9,70.3,30.17,South,180,0.0,-999.0,98,-99.99,,,1.52,Acu-Link.com,2013-07-04 12:27:00,
2013-07-04 08:42:00,71.6,71.0,30.17,SSW,202,0.0,-999.0,98,-99.99,,,1.52,Acu-Link.com,2013-07-04 12:42:00,
2013-07-04 08:57:00,72.1,71.5,30.18,SSE,157,3.2,-999.0,98,-99.99,,,1.52,Acu-Link.com,2013-07-04 12:57:00,
2013-07-04 09:13:00,72.9,72.3,30.18,South,180,0.0,-999.0,98,-99.99,,,1.52,Acu-Link.com,2013-07-04 13:13:00,
2013-07-04 09:28:00,73.8,73.2,30.18,South,180,3.7,-999.0,98,-99.99,,,1.52,Acu-Link.com,2013-07-04 13:28:00,
2013-07-04 09:43:00,74.7,74.1,30.18,West,270,1.7,-999.0,98,-99.99,,,1.52,Acu-Link.com,2013-07-04 13:43:00,
2013-07-04 09:59:00,75.0,74.4,30.18,West,270,2.7,-999.0,98,-99.99,,,1.52,Acu-Link.com,2013-07-04 13:59:00,
2013-07-04 10:14:00,74.8,74.2,30.18,SSE,157,3.2,-999.0,98,-99.99,,,1.52,Acu-Link.com,2013-07-04 14:14:00,
2013-07-04 10:29:00,75.2,74.6,30.18,SSE,157,1.1,-999.0,98,-99.99,,,1.52,Acu-Link.com,2013-07-04 14:29:00,
2013-07-04 10:45:00,75.9,75.3,30.17,East,90,0.0,-999.0,98,-99.99,,,1.52,Acu-Link.com,2013-07-04 14:45:00,
2013-07-04 11:00:00,76.8,76.2,30.17,SE,135,0.0,-999.0,98,-99.99,,,1.52,Acu-Link.com,2013-07-04 15:00:00,
2013-07-04 11:15:00,76.3,75.7,30.18,SSW,202,1.7,-999.0,98,-99.99,,,1.52,Acu-Link.com,2013-07-04 15:15:00,
2013-07-04 11:30:00,77.0,76.4,30.17,ESE,112,0.0,-999.0,98,-99.99,,,1.52,Acu-Link.com,2013-07-04 15:30:00,
2013-07-04 11:45:00,76.3,75.4,30.17,West,270,3.7,-999.0,97,-99.99,,,1.52,Acu-Link.com,2013-07-04 15:45:00,
2013-07-04 12:01:00,77.4,75.9,30.16,SSW,202,2.7,-999.0,95,-99.99,,,1.52,Acu-Link.com,2013-07-04 16:01:00,
2013-07-04 12:16:00,78.6,76.7,30.16,West,270,4.2,-999.0,94,-99.99,,,1.52,Acu-Link.com,2013-07-04 16:16:00,
2013-07-04 12:31:00,78.3,75.8,30.16,SSW,202,4.2,-999.0,92,-99.99,,,1.52,Acu-Link.com,2013-07-04 16:31:00,
2013-07-04 12:47:00,79.2,76.0,30.16,SW,225,3.7,-999.0,90,-99.99,,,1.52,Acu-Link.com,2013-07-04 16:47:00,
2013-07-04 13:02:00,79.5,75.3,30.16,ESE,112,4.7,-999.0,87,-99.99,,,1.52,Acu-Link.com,2013-07-04 17:02:00,
2013-07-04 13:17:00,78.3,74.8,30.16,ESE,112,3.2,-999.0,89,-99.99,,,1.52,Acu-Link.com,2013-07-04 17:17:00,
2013-07-04 13:32:00,81.1,76.1,30.15,South,180,3.7,-999.0,85,-99.99,,,1.52,Acu-Link.com,2013-07-04 17:32:00,
2013-07-04 13:47:00,79.9,75.0,30.15,SSE,157,3.7,-999.0,85,-99.99,,,1.52,Acu-Link.com,2013-07-04 17:47:00,
2013-07-04 14:02:00,79.3,74.0,30.15,SW,225,4.2,-999.0,84,-99.99,,,1.52,Acu-Link.com,2013-07-04 18:02:00,
2013-07-04 14:18:00,77.0,76.4,30.16,SSW,202,3.2,-999.0,98,-99.99,,,1.53,Acu-Link.com,2013-07-04 18:18:00,
2013-07-04 14:33:00,77.5,76.9,30.15,SW,225,0.0,-999.0,98,-99.99,,,1.56,Acu-Link.com,2013-07-04 18:33:00,
2013-07-04 14:48:00,77.5,76.6,30.14,SW,225,0.0,-999.0,97,-99.99,,,1.56,Acu-Link.com,2013-07-04 18:48:00,
2013-07-04 15:04:00,79.7,78.1,30.14,West,270,0.0,-999.0,95,-99.99,,,1.56,Acu-Link.com,2013-07-04 19:04:00,
2013-07-04 15:19:00,80.6,77.0,30.13,SSE,157,1.7,-999.0,89,-99.99,,,1.56,Acu-Link.com,2013-07-04 19:19:00,
2013-07-04 15:34:00,80.1,76.9,30.13,South,180,2.7,-999.0,90,-99.99,,,1.56,Acu-Link.com,2013-07-04 19:34:00,
2013-07-04 15:50:00,80.4,77.2,30.13,South,180,3.2,-999.0,90,-99.99,,,1.56,Acu-Link.com,2013-07-04 19:50:00,
2013-07-04 16:05:00,79.5,76.3,30.13,SW,225,5.3,-999.0,90,-99.99,,,1.56,Acu-Link.com,2013-07-04 20:05:00,
2013-07-04 16:20:00,79.9,76.0,30.13,SSW,202,5.3,-999.0,88,-99.99,,,1.56,Acu-Link.com,2013-07-04 20:20:00,
2013-07-04 16:35:00,80.1,76.2,30.12,South,180,2.7,-999.0,88,-99.99,,,1.56,Acu-Link.com,2013-07-04 20:35:00,
2013-07-04 16:50:00,80.2,74.9,30.13,SW,225,5.8,-999.0,84,-99.99,,,1.56,Acu-Link.com,2013-07-04 20:50:00,
2013-07-04 17:06:00,79.7,75.1,30.12,WNW,292,0.0,-999.0,86,-99.99,,,1.56,Acu-Link.com,2013-07-04 21:06:00,
2013-07-04 17:21:00,80.1,76.2,30.12,NNW,337,0.0,-999.0,88,-99.99,,,1.56,Acu-Link.com,2013-07-04 21:21:00,
2013-07-04 17:36:00,82.0,76.3,30.13,WNW,292,2.2,-999.0,83,-99.99,,,1.56,Acu-Link.com,2013-07-04 21:36:00,
2013-07-04 17:52:00,81.9,74.7,30.11,SSE,157,3.2,-999.0,79,-99.99,,,1.56,Acu-Link.com,2013-07-04 21:52:00,
2013-07-04 18:07:00,82.9,73.7,30.12,SSW,202,4.7,-999.0,74,-99.99,,,1.56,Acu-Link.com,2013-07-04 22:07:00,
2013-07-04 18:22:00,81.0,73.9,30.12,SW,225,5.3,-999.0,79,-99.99,,,1.56,Acu-Link.com,2013-07-04 22:22:00,
2013-07-04 18:38:00,79.7,73.3,30.12,SE,135,2.2,-999.0,81,-99.99,,,1.56,Acu-Link.com,2013-07-04 22:38:00,
2013-07-04 18:53:00,79.0,73.7,30.13,NW,315,1.1,-999.0,84,-99.99,,,1.56,Acu-Link.com,2013-07-04 22:53:00,
2013-07-04 19:08:00,78.8,73.9,30.13,SSW,202,1.7,-999.0,85,-99.99,,,1.56,Acu-Link.com,2013-07-04 23:08:00,
2013-07-04 19:24:00,78.3,74.1,30.13,SSE,157,0.0,-999.0,87,-99.99,,,1.56,Acu-Link.com,2013-07-04 23:24:00,
2013-07-04 19:39:00,77.9,74.0,30.12,South,180,0.0,-999.0,88,-99.99,,,1.56,Acu-Link.com,2013-07-04 23:39:00,
2013-07-04 19:54:00,77.4,73.9,30.13,SSW,202,0.0,-999.0,89,-99.99,,,1.56,Acu-Link.com,2013-07-04 23:54:00,
2013-07-04 20:10:00,76.5,73.0,30.13,South,180,3.7,-999.0,89,-99.99,,,1.56,Acu-Link.com,2013-07-05 00:10:00,
2013-07-04 20:25:00,75.6,73.4,30.13,South,180,0.0,-999.0,93,-99.99,,,1.56,Acu-Link.com,2013-07-05 00:25:00,
2013-07-04 20:40:00,75.0,73.2,30.13,SSW,202,0.0,-999.0,94,-99.99,,,1.56,Acu-Link.com,2013-07-05 00:40:00,
2013-07-04 20:56:00,74.3,73.4,30.13,SSW,202,1.1,-999.0,97,-99.99,,,1.56,Acu-Link.com,2013-07-05 00:56:00,
2013-07-04 21:11:00,73.8,72.9,30.12,SW,225,0.0,-999.0,97,-99.99,,,1.56,Acu-Link.com,2013-07-05 01:11:00,
2013-07-04 21:26:00,72.9,72.3,30.13,South,180,0.0,-999.0,98,-99.99,,,1.56,Acu-Link.com,2013-07-05 01:26:00,
2013-07-04 21:41:00,72.0,71.4,30.12,SE,135,0.0,-999.0,98,-99.99,,,1.56,Acu-Link.com,2013-07-05 01:41:00,
2013-07-04 21:57:00,71.2,70.6,30.13,South,180,0.0,-999.0,98,-99.99,,,1.56,Acu-Link.com,2013-07-05 01:57:00,
2013-07-04 22:12:00,70.9,70.3,30.14,NE,45,0.0,-999.0,98,-99.99,,,1.56,Acu-Link.com,2013-07-05 02:12:00,
2013-07-04 22:27:00,70.2,69.6,30.13,South,180,0.0,-999.0,98,-99.99,,,1.56,Acu-Link.com,2013-07-05 02:27:00,
2013-07-04 22:43:00,70.2,69.6,30.13,South,180,0.0,-999.0,98,-99.99,,,1.56,Acu-Link.com,2013-07-05 02:43:00,
2013-07-04 22:58:00,70.0,69.4,30.13,NNE,22,0.0,-999.0,98,-99.99,,,1.56,Acu-Link.com,2013-07-05 02:58:00,
2013-07-04 23:13:00,69.8,69.2,30.13,North,0,0.0,-999.0,98,-99.99,,,1.56,Acu-Link.com,2013-07-05 03:13:00,
2013-07-04 23:29:00,69.6,69.0,30.13,South,180,0.0,-999.0,98,-99.99,,,1.56,Acu-Link.com,2013-07-05 03:29:00,
2013-07-04 23:44:00,69.6,69.0,30.13,South,180,0.0,-999.0,98,-99.99,,,1.56,Acu-Link.com,2013-07-05 03:44:00,
2013-07-04 23:59:00,69.4,68.8,30.14,NE,45,0.0,-999.0,98,-99.99,,,1.56,Acu-Link.com,2013-07-05 03:59:00,